Time;durP1;ratioP1;P1;durP2;ratioP2;P2;SDS_P1;SDS_P2;PMS_P1;PMS_P2;Temp;Humidity;BMP_temperature;BMP_pressure;BME280_temperature;BME280_humidity;BME280_pressure;Samples;Min_cycle;Max_cycle;Signal;HPM_P1;HPM_P2
2023/04/04 00:00:01;;;;;;;19.10;10.90;;;;;;;13.68;92.54;97789.06;6186637;23;20176;-87
2023/04/04 00:02:26;;;;;;;19.50;11.73;;;;;;;13.89;91.53;97775.81;6186961;23;20194;-87
2023/04/04 00:04:52;;;;;;;19.37;12.13;;;;;;;13.67;92.27;97768.13;6186646;23;20221;-87
2023/04/04 00:07:18;;;;;;;19.30;11.37;;;;;;;13.85;91.03;97766.53;6160433;23;20304;-87
2023/04/04 00:09:43;;;;;;;20.73;11.57;;;;;;;13.95;90.64;97770.03;6186531;23;20575;-87
2023/04/04 00:12:09;;;;;;;16.17;10.40;;;;;;;13.76;90.39;97762.06;6186391;23;20493;-87
2023/04/04 00:14:34;;;;;;;20.80;11.53;;;;;;;13.57;91.39;97760.22;6160504;23;20485;-87
2023/04/04 00:17:00;;;;;;;16.87;10.57;;;;;;;13.89;91.05;97760.84;6160551;23;20226;-87
2023/04/04 00:19:25;;;;;;;22.43;12.47;;;;;;;13.90;90.30;97759.91;6186780;23;20255;-87
2023/04/04 00:21:50;;;;;;;20.53;10.57;;;;;;;14.11;89.23;97751.91;6187120;23;20178;-87
2023/04/04 00:24:16;;;;;;;19.00;10.23;;;;;;;13.73;90.02;97750.00;6160441;23;20499;-87
2023/04/04 00:26:42;;;;;;;21.00;11.27;;;;;;;13.67;91.44;97745.28;6160341;23;20538;-87
2023/04/04 00:29:07;;;;;;;19.93;11.73;;;;;;;13.74;91.17;97740.31;6160711;23;20151;-87
2023/04/04 00:31:33;;;;;;;15.97;10.67;;;;;;;13.88;90.69;97734.66;6186381;23;20147;-87
2023/04/04 00:33:58;;;;;;;17.17;11.30;;;;;;;13.75;90.06;97740.19;6186378;23;20588;-86
2023/04/04 00:36:24;;;;;;;16.13;9.83;;;;;;;13.70;90.73;97738.91;6186315;23;20146;-86
2023/04/04 00:38:49;;;;;;;19.60;11.73;;;;;;;13.97;90.05;97750.47;6186262;23;20535;-86
2023/04/04 00:41:15;;;;;;;22.10;10.70;;;;;;;14.16;89.19;97760.22;6161325;23;20155;-86
2023/04/04 00:43:41;;;;;;;24.70;12.13;;;;;;;13.72;90.84;97763.31;6160654;23;20155;-86
2023/04/04 00:46:08;;;;;;;15.23;10.20;;;;;;;13.67;90.69;97766.34;6186081;23;20217;-87
2023/04/04 00:48:35;;;;;;;22.37;11.83;;;;;;;13.69;90.72;97776.72;6186214;23;20146;-87
2023/04/04 00:51:01;;;;;;;21.90;12.20;;;;;;;13.50;93.18;97778.31;6186117;23;20162;-87
2023/04/04 00:53:26;;;;;;;24.67;13.37;;;;;;;13.44;92.54;97783.28;6186726;23;20155;-87
2023/04/04 00:55:52;;;;;;;18.00;10.60;;;;;;;13.64;92.53;97774.50;6186731;23;20215;-87
2023/04/04 00:58:18;;;;;;;20.53;11.00;;;;;;;13.45;92.74;97782.31;6186363;23;20177;-87
2023/04/04 01:00:43;;;;;;;18.43;10.43;;;;;;;13.43;92.44;97777.19;6160739;23;20154;-88
2023/04/04 01:03:11;;;;;;;17.63;10.83;;;;;;;13.60;92.21;97774.91;6185989;23;20622;-87
2023/04/04 01:05:37;;;;;;;22.53;10.77;;;;;;;13.54;93.13;97771.84;6159743;23;20211;-88
2023/04/04 01:08:03;;;;;;;17.53;10.23;;;;;;;13.27;93.98;97768.09;6186618;23;20617;-87
2023/04/04 01:10:35;;;;;;;20.10;11.20;;;;;;;13.41;94.03;97768.59;6185850;23;20159;-87
2023/04/04 01:13:00;;;;;;;20.50;10.77;;;;;;;13.17;94.87;97761.94;6159969;23;20154;-87
2023/04/04 01:15:26;;;;;;;16.50;10.87;;;;;;;13.31;94.77;97753.72;6159868;23;20214;-88
2023/04/04 01:17:56;;;;;;;18.77;9.47;;;;;;;13.11;95.33;97750.16;6160557;23;20154;-87
2023/04/04 01:20:25;;;;;;;18.53;10.10;;;;;;;13.33;95.28;97738.63;6186284;23;20158;-87
2023/04/04 01:22:53;;;;;;;17.73;9.63;;;;;;;13.43;94.25;97728.97;6186470;23;20294;-87
2023/04/04 01:25:29;;;;;;;18.97;9.27;;;;;;;13.55;92.05;97728.75;6159786;23;20154;-87
2023/04/04 01:27:55;;;;;;;18.00;8.53;;;;;;;13.27;94.13;97724.19;6186166;23;20190;-87
2023/04/04 01:30:22;;;;;;;13.53;8.97;;;;;;;13.28;93.46;97722.41;6160506;23;20166;-87
2023/04/04 01:32:58;;;;;;;17.37;9.20;;;;;;;13.28;94.14;97719.78;6160140;23;20161;-87
2023/04/04 01:35:45;;;;;;;15.83;9.70;;;;;;;13.18;95.33;97719.72;6160207;23;20167;-87
2023/04/04 01:38:24;;;;;;;17.57;10.37;;;;;;;12.85;96.96;97727.81;6186062;23;20479;-86
2023/04/04 01:40:56;;;;;;;18.83;10.17;;;;;;;13.08;96.35;97726.72;6159734;23;20146;-86
2023/04/04 01:43:22;;;;;;;14.27;8.80;;;;;;;13.34;94.89;97713.97;6186095;23;20137;-86
2023/04/04 01:45:48;;;;;;;20.10;10.10;;;;;;;13.31;93.92;97711.63;6185955;23;20585;-86
2023/04/04 01:48:15;;;;;;;16.57;10.33;;;;;;;13.50;93.43;97714.31;6186231;23;20212;-86
2023/04/04 01:50:41;;;;;;;20.57;10.87;;;;;;;13.58;92.84;97717.13;6185644;23;20309;-86
2023/04/04 01:53:06;;;;;;;18.80;9.70;;;;;;;13.20;94.26;97717.81;6159695;23;20505;-86
2023/04/04 01:55:32;;;;;;;18.60;9.70;;;;;;;13.34;93.58;97704.28;6185573;23;20151;-86
2023/04/04 01:57:57;;;;;;;17.77;9.70;;;;;;;13.39;93.67;97701.28;6159627;23;20154;-86
2023/04/04 02:00:23;;;;;;;19.43;10.53;;;;;;;13.52;92.50;97699.25;6185598;23;20487;-86
2023/04/04 02:02:48;;;;;;;20.37;10.33;;;;;;;13.51;92.37;97701.03;6186583;23;20243;-85
2023/04/04 02:05:14;;;;;;;17.60;10.87;;;;;;;13.43;92.28;97705.28;6185977;23;20181;-86
2023/04/04 02:07:40;;;;;;;22.40;10.43;;;;;;;13.31;92.53;97707.16;6159862;23;20187;-86
2023/04/04 02:10:05;;;;;;;19.57;10.13;;;;;;;13.43;92.58;97707.91;6185975;23;20163;-86
2023/04/04 02:12:31;;;;;;;17.50;9.93;;;;;;;13.58;91.53;97690.78;6185383;23;20157;-86
2023/04/04 02:14:56;;;;;;;15.53;9.63;;;;;;;13.45;91.87;97687.56;6185470;23;20150;-86
2023/04/04 02:17:22;;;;;;;18.00;10.50;;;;;;;13.18;93.78;97682.06;6159113;23;20163;-86
2023/04/04 02:19:48;;;;;;;20.23;10.23;;;;;;;13.40;93.32;97672.19;6159381;23;20563;-85
2023/04/04 02:22:13;;;;;;;19.23;10.17;;;;;;;13.77;91.21;97661.88;6185724;23;20234;-86
2023/04/04 02:24:39;;;;;;;17.70;10.37;;;;;;;14.02;89.89;97663.97;6159833;23;20534;-85
2023/04/04 02:27:05;;;;;;;15.77;9.87;;;;;;;14.07;88.55;97667.03;6159412;23;20630;-85
2023/04/04 02:29:30;;;;;;;17.97;9.63;;;;;;;14.00;88.19;97655.38;6186016;23;20150;-86
2023/04/04 02:31:56;;;;;;;22.57;11.20;;;;;;;14.03;88.32;97656.91;6159430;23;20155;-86
2023/04/04 02:34:21;;;;;;;22.43;11.17;;;;;;;13.91;87.90;97650.97;6185341;23;20157;-85
2023/04/04 02:36:47;;;;;;;16.77;9.17;;;;;;;13.70;88.60;97647.59;6159670;23;20568;-86
2023/04/04 02:39:12;;;;;;;18.77;10.30;;;;;;;13.69;89.74;97635.38;6185703;23;20451;-86
2023/04/04 02:41:38;;;;;;;16.70;10.83;;;;;;;13.43;90.54;97634.22;6159735;23;20181;-86
2023/04/04 02:44:03;;;;;;;18.20;10.30;;;;;;;13.36;91.65;97651.53;6159331;23;20159;-85
2023/04/04 02:46:29;;;;;;;20.77;10.57;;;;;;;13.39;91.12;97652.06;6159295;23;20542;-85
2023/04/04 02:48:54;;;;;;;19.77;10.77;;;;;;;13.41;90.99;97651.97;6159650;23;20150;-86
2023/04/04 02:51:19;;;;;;;19.80;9.40;;;;;;;13.21;92.04;97645.78;6159300;23;20168;-86
2023/04/04 02:53:45;;;;;;;20.97;11.70;;;;;;;12.92;94.42;97645.63;6159293;23;20274;-86
2023/04/04 02:56:11;;;;;;;18.00;10.97;;;;;;;12.91;94.72;97645.78;6159645;23;20150;-86
2023/04/04 02:58:36;;;;;;;20.27;11.80;;;;;;;12.91;95.09;97645.78;6159254;23;20154;-86
2023/04/04 03:01:02;;;;;;;19.90;10.70;;;;;;;13.22;93.23;97638.72;6185236;23;20151;-86
2023/04/04 03:03:27;;;;;;;22.80;10.93;;;;;;;13.27;93.60;97650.53;6185642;23;20226;-85
2023/04/04 03:05:53;;;;;;;17.63;10.50;;;;;;;13.25;93.19;97656.88;6159168;23;20162;-85
2023/04/04 03:08:18;;;;;;;18.20;10.77;;;;;;;13.36;92.03;97647.06;6185088;23;20630;-86
2023/04/04 03:10:45;;;;;;;18.50;10.17;;;;;;;13.39;92.72;97643.38;6185070;23;20619;-85
2023/04/04 03:13:11;;;;;;;16.20;10.47;;;;;;;13.20;93.78;97651.19;6185591;23;20470;-86
2023/04/04 03:15:36;;;;;;;18.97;10.70;;;;;;;13.38;92.43;97657.50;6185481;23;20151;-85
2023/04/04 03:18:02;;;;;;;19.20;9.23;;;;;;;13.25;93.85;97651.63;6185125;23;20142;-85
2023/04/04 03:20:28;;;;;;;17.07;10.07;;;;;;;13.48;92.72;97653.06;6185148;23;20158;-85
2023/04/04 03:22:53;;;;;;;16.97;9.67;;;;;;;13.65;91.89;97649.81;6159441;23;20544;-85
2023/04/04 03:25:19;;;;;;;19.17;10.13;;;;;;;13.62;91.15;97657.97;6185430;23;20147;-85
2023/04/04 03:27:44;;;;;;;20.20;9.63;;;;;;;13.31;92.37;97662.44;6159054;23;20178;-86
2023/04/04 03:30:10;;;;;;;19.80;9.70;;;;;;;13.47;93.19;97667.19;6160427;23;20585;-85
2023/04/04 03:32:36;;;;;;;17.80;9.07;;;;;;;13.69;91.38;97666.16;6160947;23;20154;-85
2023/04/04 03:35:02;;;;;;;15.03;10.13;;;;;;;13.80;89.79;97663.41;6187612;23;20185;-86
2023/04/04 03:37:29;;;;;;;16.30;9.03;;;;;;;13.63;90.86;97672.78;6161470;23;20155;-85
2023/04/04 03:39:54;;;;;;;14.87;9.07;;;;;;;13.62;92.00;97673.78;6186743;23;20181;-85
2023/04/04 03:42:20;;;;;;;19.00;9.03;;;;;;;13.68;90.97;97670.56;6187151;23;20178;-85
2023/04/04 03:44:46;;;;;;;16.27;8.80;;;;;;;13.58;92.08;97675.00;6160784;23;20632;-86
2023/04/04 03:47:12;;;;;;;16.20;8.90;;;;;;;13.63;91.94;97678.06;6186359;23;20257;-85
2023/04/04 03:49:38;;;;;;;19.80;9.03;;;;;;;13.81;90.73;97673.78;6186766;23;20235;-85
2023/04/04 03:52:03;;;;;;;15.77;7.73;;;;;;;13.80;90.16;97680.03;6187047;23;20213;-85
2023/04/04 03:54:29;;;;;;;17.53;8.17;;;;;;;13.67;91.19;97676.00;6187080;23;20150;-85
2023/04/04 03:56:56;;;;;;;16.43;8.23;;;;;;;13.59;91.77;97674.03;6186709;23;20142;-85
2023/04/04 03:59:21;;;;;;;15.37;7.57;;;;;;;13.57;91.83;97678.59;6186707;23;20154;-86
2023/04/04 04:01:47;;;;;;;15.50;7.97;;;;;;;13.31;93.14;97677.41;6187305;23;20212;-86
2023/04/04 04:04:12;;;;;;;16.70;7.00;;;;;;;13.39;93.28;97685.47;6186954;23;20174;-86
2023/04/04 04:06:38;;;;;;;14.67;6.30;;;;;;;13.47;93.04;97683.00;6186476;23;20606;-85
2023/04/04 04:09:03;;;;;;;13.07;6.83;;;;;;;13.75;90.78;97678.78;6160542;23;20637;-85
2023/04/04 04:11:29;;;;;;;13.43;7.70;;;;;;;13.62;90.77;97680.84;6172840;23;20170;-86
2023/04/04 04:13:55;;;;;;;11.60;5.87;;;;;;;13.48;92.27;97688.13;6186560;23;20146;-85
2023/04/04 04:16:21;;;;;;;14.53;6.40;;;;;;;13.43;93.01;97681.59;6187207;23;20226;-85
2023/04/04 04:18:47;;;;;;;10.70;5.50;;;;;;;13.59;92.63;97679.31;6186833;23;20174;-85
2023/04/04 04:21:12;;;;;;;12.00;5.87;;;;;;;13.29;93.90;97680.16;6186795;23;20209;-85
2023/04/04 04:23:38;;;;;;;11.27;5.63;;;;;;;13.47;93.49;97675.09;6185030;23;20158;-86
2023/04/04 04:26:04;;;;;;;9.03;4.47;;;;;;;13.46;92.35;97681.34;6186335;23;20146;-86
2023/04/04 04:28:29;;;;;;;8.37;5.13;;;;;;;13.70;92.47;97683.63;6185026;23;20193;-85
2023/04/04 04:30:55;;;;;;;11.03;5.27;;;;;;;13.68;92.31;97683.75;6186384;23;20150;-85
2023/04/04 04:33:28;;;;;;;13.03;6.20;;;;;;;13.79;90.89;97691.53;6186340;23;20279;-85
2023/04/04 04:35:57;;;;;;;7.50;4.30;;;;;;;13.91;90.75;97682.56;6186745;23;20566;-85
2023/04/04 04:38:23;;;;;;;6.40;3.77;;;;;;;13.77;90.29;97690.00;6186379;23;20181;-85
2023/04/04 04:40:48;;;;;;;7.70;4.80;;;;;;;13.51;92.58;97689.66;6184796;23;20158;-86
2023/04/04 04:43:13;;;;;;;8.07;3.83;;;;;;;13.66;92.45;97682.22;6186385;23;20154;-85
2023/04/04 04:45:41;;;;;;;7.80;4.30;;;;;;;13.71;92.26;97686.09;6186210;23;20151;-85
2023/04/04 04:48:06;;;;;;;11.07;4.53;;;;;;;13.98;90.77;97686.31;6184856;23;20182;-85
2023/04/04 04:50:32;;;;;;;7.33;4.20;;;;;;;13.97;90.17;97692.53;6184592;23;20557;-86
2023/04/04 04:52:57;;;;;;;6.87;4.47;;;;;;;14.05;89.34;97697.94;6186156;23;20237;-85
2023/04/04 04:55:23;;;;;;;7.57;4.10;;;;;;;14.05;89.26;97697.94;6186128;23;20158;-85
2023/04/04 04:57:48;;;;;;;8.07;4.57;;;;;;;14.23;88.71;97686.75;6186051;23;20227;-85
2023/04/04 05:00:15;;;;;;;7.97;4.10;;;;;;;14.39;87.67;97687.88;6186079;23;20147;-85
2023/04/04 05:02:40;;;;;;;16.40;7.17;;;;;;;14.21;87.76;97688.66;6185983;23;20151;-85
2023/04/04 05:05:06;;;;;;;10.37;4.40;;;;;;;14.36;87.63;97690.78;6186003;23;20176;-85
2023/04/04 05:07:32;;;;;;;7.47;4.30;;;;;;;14.34;86.87;97681.34;6184689;23;20178;-86
2023/04/04 05:09:57;;;;;;;6.70;3.80;;;;;;;14.39;86.66;97682.59;6185964;23;20161;-86
2023/04/04 05:12:23;;;;;;;6.30;3.43;;;;;;;14.27;87.77;97680.22;6186423;23;20173;-86
2023/04/04 05:14:49;;;;;;;7.70;4.13;;;;;;;14.23;87.77;97684.91;6186463;23;20229;-85
2023/04/04 05:17:14;;;;;;;6.93;3.70;;;;;;;14.29;87.81;97681.75;6159778;23;20314;-85
2023/04/04 05:19:40;;;;;;;7.13;4.43;;;;;;;14.39;87.39;97689.66;6159956;23;20158;-85
2023/04/04 05:22:06;;;;;;;7.63;3.90;;;;;;;14.38;87.62;97680.94;6159862;23;20160;-85
2023/04/04 05:24:32;;;;;;;8.27;3.93;;;;;;;14.47;87.51;97684.53;6186033;23;20592;-85
2023/04/04 05:26:57;;;;;;;8.40;3.77;;;;;;;14.26;88.10;97686.44;6159943;23;20187;-85
2023/04/04 05:29:23;;;;;;;6.73;4.10;;;;;;;13.94;90.15;97679.63;6186156;23;20152;-85
2023/04/04 05:31:48;;;;;;;7.83;3.63;;;;;;;14.21;89.91;97686.88;6185799;23;20149;-85
2023/04/04 05:34:14;;;;;;;6.93;3.47;;;;;;;14.32;89.31;97691.19;6185762;23;20166;-85
2023/04/04 05:36:40;;;;;;;7.63;4.37;;;;;;;14.13;90.01;97698.09;6185728;23;20173;-85
2023/04/04 05:39:06;;;;;;;13.47;6.30;;;;;;;13.94;90.61;97699.91;6186012;23;20235;-85
2023/04/04 05:41:31;;;;;;;12.63;5.33;;;;;;;14.17;90.27;97706.56;6159725;23;20188;-85
2023/04/04 05:43:57;;;;;;;7.67;5.10;;;;;;;14.45;88.40;97705.78;6159705;23;20170;-85
2023/04/04 05:46:22;;;;;;;13.23;6.50;;;;;;;14.15;89.24;97711.97;6159668;23;20660;-85
2023/04/04 05:48:49;;;;;;;14.17;7.03;;;;;;;14.06;90.19;97704.91;6159678;23;20159;-86
2023/04/04 05:51:15;;;;;;;10.13;4.27;;;;;;;14.27;89.99;97710.03;6185574;23;20503;-86
2023/04/04 05:53:41;;;;;;;8.03;4.03;;;;;;;14.32;89.40;97707.00;6159570;23;20185;-86
2023/04/04 05:56:07;;;;;;;13.83;4.83;;;;;;;14.58;88.40;97708.13;6160009;23;20534;-86
2023/04/04 05:58:32;;;;;;;10.43;4.83;;;;;;;14.84;87.03;97696.00;6159457;23;20513;-86
2023/04/04 06:00:58;;;;;;;9.13;4.50;;;;;;;14.88;86.47;97697.41;6159501;23;20283;-86
2023/04/04 06:03:23;;;;;;;8.90;5.17;;;;;;;14.89;86.72;97690.28;6159486;23;20180;-86
2023/04/04 06:05:51;;;;;;;8.00;4.53;;;;;;;14.90;86.46;97692.81;6159904;23;20151;-86
2023/04/04 06:08:16;;;;;;;11.37;5.70;;;;;;;14.91;86.18;97685.72;6185301;23;20214;-86
2023/04/04 06:10:42;;;;;;;9.77;5.63;;;;;;;14.83;86.43;97682.97;6185303;23;20173;-86
2023/04/04 06:13:07;;;;;;;10.53;6.70;;;;;;;14.60;86.48;97685.06;6159568;23;20156;-86
2023/04/04 06:15:33;;;;;;;11.87;6.33;;;;;;;14.42;87.87;97684.13;6159284;23;20177;-85
2023/04/04 06:17:58;;;;;;;14.00;7.10;;;;;;;14.52;88.41;97674.41;6185764;23;20154;-85
2023/04/04 06:20:24;;;;;;;27.77;9.83;;;;;;;14.67;87.12;97676.44;6159831;23;20591;-86
2023/04/04 06:22:49;;;;;;;22.23;8.73;;;;;;;14.80;86.90;97676.19;6159404;23;20159;-86
2023/04/04 06:25:15;;;;;;;15.40;7.57;;;;;;;14.79;86.90;97674.50;6185788;23;20162;-85
2023/04/04 06:27:41;;;;;;;14.37;7.00;;;;;;;14.54;88.12;97680.38;6185932;23;20178;-85
2023/04/04 06:30:07;;;;;;;15.33;6.57;;;;;;;14.58;88.13;97676.47;6185627;23;20157;-85
2023/04/04 06:32:32;;;;;;;12.20;7.03;;;;;;;14.85;87.60;97675.75;6185392;23;20180;-85
2023/04/04 06:34:58;;;;;;;16.27;7.17;;;;;;;15.03;87.20;97681.94;6186043;23;20523;-86
2023/04/04 06:37:23;;;;;;;11.83;5.80;;;;;;;14.96;86.73;97681.69;6159686;23;20157;-85
2023/04/04 06:39:49;;;;;;;14.43;5.93;;;;;;;14.72;87.65;97681.31;6185480;23;20235;-85
2023/04/04 06:42:14;;;;;;;9.93;5.33;;;;;;;14.94;87.08;97675.69;6185294;23;20157;-87
2023/04/04 06:44:40;;;;;;;10.60;5.33;;;;;;;14.73;88.07;97670.63;6159584;23;20637;-86
2023/04/04 06:47:05;;;;;;;14.63;6.50;;;;;;;14.58;89.46;97674.69;6185602;23;20181;-86
2023/04/04 06:49:32;;;;;;;14.80;6.30;;;;;;;14.87;88.76;97676.41;6159604;23;20168;-86
2023/04/04 06:51:59;;;;;;;9.53;4.97;;;;;;;14.93;88.19;97671.41;6185259;23;20151;-85
2023/04/04 06:54:24;;;;;;;12.83;5.00;;;;;;;14.73;88.84;97672.41;6159681;23;20183;-86
2023/04/04 06:56:51;;;;;;;9.63;5.00;;;;;;;14.69;87.87;97674.53;6185534;23;20573;-86
2023/04/04 06:59:17;;;;;;;12.30;5.10;;;;;;;14.89;87.87;97669.19;6159150;23;20166;-86
2023/04/04 07:01:43;;;;;;;11.33;6.17;;;;;;;15.08;87.37;97669.13;6159279;23;20157;-86
2023/04/04 07:04:08;;;;;;;14.00;6.80;;;;;;;15.21;86.29;97657.28;6185669;23;20149;-86
2023/04/04 07:06:34;;;;;;;19.03;7.70;;;;;;;15.16;87.16;97663.97;6161483;23;20674;-86
2023/04/04 07:08:59;;;;;;;18.57;7.20;;;;;;;14.70;87.74;97664.81;6187133;23;20216;-86
2023/04/04 07:11:25;;;;;;;15.60;6.70;;;;;;;14.84;88.71;97668.78;6187559;23;20196;-86
2023/04/04 07:13:51;;;;;;;12.97;6.47;;;;;;;15.07;86.97;97660.38;6187126;23;20149;-87
2023/04/04 07:16:16;;;;;;;9.03;4.63;;;;;;;15.14;87.17;97658.84;6161567;23;20153;-87
2023/04/04 07:18:43;;;;;;;9.07;5.30;;;;;;;15.37;85.57;97664.59;6161030;23;20161;-86
2023/04/04 07:21:08;;;;;;;8.37;4.33;;;;;;;15.28;85.73;97661.00;6186870;23;20150;-87
2023/04/04 07:23:34;;;;;;;6.90;3.33;;;;;;;15.22;85.18;97658.13;6161062;23;20216;-86
2023/04/04 07:26:00;;;;;;;12.97;4.37;;;;;;;15.06;86.52;97661.38;6160920;23;20254;-87
2023/04/04 07:28:25;;;;;;;10.40;4.80;;;;;;;15.26;86.36;97657.69;6161845;23;20602;-87
2023/04/04 07:30:51;;;;;;;8.50;4.20;;;;;;;15.47;85.89;97664.56;6161354;23;20161;-88
2023/04/04 07:33:16;;;;;;;9.53;4.33;;;;;;;15.53;85.02;97661.34;6161368;23;20162;-89
2023/04/04 07:35:42;;;;;;;11.47;4.07;;;;;;;15.82;83.82;97659.38;6187931;23;20157;-89
2023/04/04 07:38:09;;;;;;;6.20;3.73;;;;;;;15.69;83.38;97658.88;6161195;23;20153;-90
2023/04/04 07:40:34;;;;;;;9.40;4.07;;;;;;;15.57;83.92;97660.06;6187218;23;20146;-89
2023/04/04 07:43:00;;;;;;;6.73;3.90;;;;;;;15.53;83.13;97662.16;6187458;23;20190;-89
2023/04/04 07:45:25;;;;;;;8.07;4.20;;;;;;;15.62;83.66;97666.56;6187049;23;20253;-90
2023/04/04 07:47:51;;;;;;;12.77;5.00;;;;;;;15.56;82.05;97668.97;6186461;23;20175;-89
2023/04/04 07:50:16;;;;;;;7.93;4.20;;;;;;;15.16;85.00;97667.44;6186867;23;20154;-89
2023/04/04 07:52:50;;;;;;;17.40;6.40;;;;;;;15.55;83.01;97675.22;6187353;23;20159;-90
2023/04/04 07:55:15;;;;;;;11.07;5.20;;;;;;;15.13;83.95;97662.47;6160790;23;20149;-89
2023/04/04 07:57:41;;;;;;;12.07;5.93;;;;;;;15.22;83.31;97656.31;6186621;23;20153;-89
2023/04/04 08:00:10;;;;;;;15.87;5.93;;;;;;;15.43;84.77;97661.38;6186637;23;20327;-89
2023/04/04 08:02:37;;;;;;;10.93;4.87;;;;;;;15.42;84.32;97666.78;6186565;23;20173;-90
2023/04/04 08:05:03;;;;;;;10.37;4.70;;;;;;;15.56;84.72;97667.16;6187389;23;20161;-91
2023/04/04 08:07:28;;;;;;;13.00;5.63;;;;;;;15.73;84.21;97670.81;6161818;23;20212;-90
2023/04/04 08:09:54;;;;;;;8.00;4.97;;;;;;;15.76;82.47;97665.22;6186888;23;20563;-90
2023/04/04 08:12:20;;;;;;;14.07;4.60;;;;;;;15.99;81.20;97669.94;6186470;23;20162;-90
2023/04/04 08:14:45;;;;;;;6.47;3.80;;;;;;;16.14;78.81;97667.59;6186388;23;20151;-90
2023/04/04 08:17:11;;;;;;;9.10;3.73;;;;;;;16.13;78.34;97665.94;6186265;23;20157;-90
2023/04/04 08:19:37;;;;;;;10.20;4.73;;;;;;;16.32;76.65;97667.63;6186524;23;20153;-91
2023/04/04 08:22:02;;;;;;;6.53;3.17;;;;;;;16.32;75.16;97676.38;6186451;23;20146;-90
2023/04/04 08:24:28;;;;;;;9.80;3.67;;;;;;;16.41;75.42;97672.81;6186398;23;20146;-91
2023/04/04 08:26:53;;;;;;;8.77;3.30;;;;;;;16.80;75.53;97667.19;6186703;23;20595;-90
2023/04/04 08:29:19;;;;;;;10.53;4.70;;;;;;;16.74;74.55;97667.81;6186360;23;20146;-90
2023/04/04 08:31:44;;;;;;;4.97;2.63;;;;;;;17.06;74.01;97668.84;6186299;23;20157;-90
2023/04/04 08:34:10;;;;;;;10.90;3.00;;;;;;;17.31;73.03;97661.03;6186644;23;20151;-90
2023/04/04 08:36:35;;;;;;;6.23;3.27;;;;;;;17.39;71.74;97663.72;6186974;23;20146;-89
2023/04/04 08:39:02;;;;;;;6.87;2.23;;;;;;;17.30;70.71;97667.31;6186611;23;20217;-90
2023/04/04 08:41:28;;;;;;;5.10;2.17;;;;;;;17.43;67.79;97671.19;6160286;23;20159;-90
2023/04/04 08:43:56;;;;;;;3.00;2.13;;;;;;;17.79;69.21;97667.38;6186543;23;20150;-90
2023/04/04 08:46:23;;;;;;;3.40;1.80;;;;;;;17.44;67.97;97667.56;6186082;23;20150;-90
2023/04/04 08:48:51;;;;;;;4.10;1.80;;;;;;;17.70;66.49;97678.97;6186127;23;20151;-90
2023/04/04 08:51:19;;;;;;;8.30;2.40;;;;;;;17.87;65.32;97673.72;6160388;23;20644;-89
2023/04/04 08:53:44;;;;;;;8.40;3.27;;;;;;;18.24;65.27;97687.34;6186073;23;20246;-90
2023/04/04 08:56:10;;;;;;;4.70;1.97;;;;;;;18.48;63.54;97689.25;6186141;23;20582;-90
2023/04/04 08:58:37;;;;;;;5.67;2.07;;;;;;;17.97;64.17;97690.31;6186005;23;20566;-89
2023/04/04 09:01:04;;;;;;;6.50;2.10;;;;;;;18.17;64.19;97687.19;6185944;23;20147;-89
2023/04/04 09:03:33;;;;;;;5.97;2.00;;;;;;;18.41;61.73;97691.69;6159997;23;20488;-90
2023/04/04 09:06:00;;;;;;;6.80;1.67;;;;;;;18.34;60.00;97698.66;6159948;23;20193;-89
2023/04/04 09:08:27;;;;;;;3.37;1.60;;;;;;;18.45;59.86;97694.88;6159992;23;20529;-89
2023/04/04 09:10:53;;;;;;;6.10;1.40;;;;;;;18.64;60.79;97694.56;6185826;23;20246;-91
2023/04/04 09:13:19;;;;;;;3.80;1.33;;;;;;;18.53;57.02;97702.84;6186569;23;20140;-90
2023/04/04 09:15:50;;;;;;;7.33;1.67;;;;;;;18.73;59.17;97694.41;6159967;23;20157;-90
2023/04/04 09:18:16;;;;;;;3.73;2.10;;;;;;;18.66;59.66;97704.00;6185938;23;20131;-90
2023/04/04 09:20:48;;;;;;;3.83;1.33;;;;;;;18.43;61.00;97701.16;6159871;23;20158;-90
2023/04/04 09:23:17;;;;;;;4.77;2.00;;;;;;;18.59;61.35;97700.38;6159861;23;20150;-90
2023/04/04 09:25:47;;;;;;;4.67;2.00;;;;;;;18.57;61.81;97702.38;6186847;23;20149;-89
2023/04/04 09:28:14;;;;;;;5.50;2.40;;;;;;;18.49;63.72;97701.53;6185575;23;20174;-89
2023/04/04 09:30:40;;;;;;;6.37;2.57;;;;;;;18.55;63.93;97700.88;6186034;23;20146;-89
2023/04/04 09:33:09;;;;;;;4.67;1.80;;;;;;;18.13;63.33;97706.25;6185756;23;20147;-90
2023/04/04 09:35:40;;;;;;;8.80;2.60;;;;;;;18.28;64.91;97694.00;6185652;23;20149;-89
2023/04/04 09:38:06;;;;;;;4.57;2.40;;;;;;;18.51;63.14;97689.75;6186000;23;20217;-89
2023/04/04 09:40:34;;;;;;;6.13;2.40;;;;;;;18.57;63.14;97693.56;6185686;23;20146;-89
2023/04/04 09:43:01;;;;;;;9.73;2.37;;;;;;;18.63;62.53;97692.91;6185915;23;20174;-89
2023/04/04 09:45:31;;;;;;;5.23;2.83;;;;;;;18.50;62.36;97685.41;6185670;23;20157;-90
2023/04/04 09:47:56;;;;;;;6.87;2.97;;;;;;;18.58;64.09;97688.09;6185348;23;20191;-90
2023/04/04 09:50:27;;;;;;;11.43;2.50;;;;;;;18.79;64.04;97675.13;6185638;23;20186;-90
2023/04/04 09:52:56;;;;;;;6.37;2.07;;;;;;;18.93;61.98;97681.59;6160645;23;20212;-89
2023/04/04 09:55:30;;;;;;;5.33;2.13;;;;;;;19.09;61.84;97681.56;6185960;23;20226;-90
2023/04/04 09:57:56;;;;;;;3.40;1.83;;;;;;;19.23;61.49;97682.72;6185638;23;20139;-90
2023/04/04 10:00:22;;;;;;;6.33;3.07;;;;;;;19.48;63.14;97677.19;6185825;23;20163;-90
2023/04/04 10:02:48;;;;;;;6.87;2.23;;;;;;;19.51;61.49;97668.03;6186152;23;20176;-90
2023/04/04 10:05:15;;;;;;;5.63;2.47;;;;;;;19.28;60.40;97669.75;6186174;23;20152;-91
2023/04/04 10:07:46;;;;;;;7.20;2.80;;;;;;;19.04;61.33;97675.94;6185380;23;20185;-90
2023/04/04 10:10:12;;;;;;;5.83;2.77;;;;;;;18.93;62.20;97674.47;6185729;23;20132;-90
2023/04/04 10:12:38;;;;;;;10.57;3.43;;;;;;;19.20;63.63;97670.59;6185822;23;20139;-90
2023/04/04 10:15:04;;;;;;;5.33;2.90;;;;;;;19.32;64.16;97676.38;6185396;23;20188;-91
2023/04/04 10:17:40;;;;;;;6.53;3.30;;;;;;;19.61;62.49;97673.97;6186278;23;20143;-90
2023/04/04 10:20:08;;;;;;;4.87;2.70;;;;;;;19.72;60.18;97673.59;6185398;23;20140;-90
2023/04/04 10:22:35;;;;;;;7.97;3.20;;;;;;;19.56;60.49;97676.31;6185633;23;20154;-91
2023/04/04 10:25:02;;;;;;;8.77;3.57;;;;;;;19.46;59.23;97670.38;6185745;23;20208;-90
2023/04/04 10:27:27;;;;;;;8.63;4.10;;;;;;;19.56;58.68;97673.66;6185278;23;20610;-91
2023/04/04 10:29:53;;;;;;;8.40;3.10;;;;;;;19.46;60.52;97667.72;6185347;23;20149;-91
2023/04/04 10:32:47;;;;;;;8.13;3.63;;;;;;;19.45;60.76;97668.72;6185442;23;20638;-91
2023/04/04 10:35:13;;;;;;;7.03;2.97;;;;;;;19.64;60.10;97668.31;6143110;23;20571;-91
2023/04/04 10:37:44;;;;;;;9.50;3.60;;;;;;;19.70;59.15;97667.63;6159416;23;20196;-91
2023/04/04 10:40:15;;;;;;;7.10;3.07;;;;;;;19.78;58.54;97664.94;6186857;23;20147;-91
2023/04/04 10:42:43;;;;;;;8.87;3.77;;;;;;;20.02;59.16;97662.13;6187834;23;20191;-90
2023/04/04 10:45:09;;;;;;;9.37;4.87;;;;;;;19.67;59.45;97657.34;6187193;23;20158;-91
2023/04/04 10:47:36;;;;;;;11.93;3.77;;;;;;;19.58;59.55;97658.38;6187717;23;20245;-91
2023/04/04 10:50:08;;;;;;;10.33;4.00;;;;;;;19.63;59.22;97660.53;6187736;23;20151;-90
2023/04/04 10:52:34;;;;;;;9.17;3.90;;;;;;;19.65;59.43;97664.66;6162350;23;20499;-91
2023/04/04 10:55:04;;;;;;;9.33;3.93;;;;;;;19.47;58.53;97672.06;6161402;23;20150;-91
2023/04/04 10:57:32;;;;;;;10.47;4.33;;;;;;;19.37;59.98;97664.25;6161345;23;20531;-91
2023/04/04 11:00:11;;;;;;;5.80;3.20;;;;;;;19.52;59.92;97661.72;6187305;23;20156;-91
2023/04/04 11:02:58;;;;;;;9.87;3.67;;;;;;;19.49;61.22;97660.25;6162387;23;20227;-90
2023/04/04 11:05:31;;;;;;;4.83;3.00;;;;;;;19.64;61.70;97655.03;6161584;23;20571;-91
2023/04/04 11:08:01;;;;;;;6.57;4.13;;;;;;;19.72;60.16;97657.66;6187140;23;20182;-91
2023/04/04 11:10:34;;;;;;;10.40;3.50;;;;;;;19.50;58.58;97661.88;6186899;23;20220;-90
2023/04/04 11:13:07;;;;;;;4.60;2.40;;;;;;;19.25;59.49;97656.81;6187159;23;20150;-91
2023/04/04 11:15:53;;;;;;;9.10;3.67;;;;;;;19.31;60.25;97653.47;6187156;23;20132;-91
2023/04/04 11:18:19;;;;;;;7.53;3.30;;;;;;;19.17;61.23;97659.47;6161190;23;20155;-91
2023/04/04 11:20:47;;;;;;;7.93;4.10;;;;;;;19.22;62.38;97660.63;6187128;23;20613;-92
2023/04/04 11:23:21;;;;;;;10.80;4.20;;;;;;;19.18;61.94;97655.84;6161046;23;20169;-91